createdAt,value
2023-05-11T00:01:21.889Z,1.50
2023-05-11T00:03:50.500Z,2.20
2023-05-11T00:06:19.228Z,2.73
2023-05-11T00:08:47.880Z,1.80
2023-05-11T00:11:16.944Z,2.50
2023-05-11T00:13:47.245Z,2.00
2023-05-11T00:16:15.552Z,2.00
2023-05-11T00:18:43.954Z,2.10
2023-05-11T00:21:15.077Z,2.10
2023-05-11T00:23:43.413Z,2.00
2023-05-11T00:26:11.726Z,2.10
2023-05-11T00:28:40.110Z,2.00
2023-05-11T00:31:11.104Z,2.03
2023-05-11T00:33:39.412Z,2.20
2023-05-11T00:36:09.135Z,2.50
2023-05-11T00:38:41.109Z,2.30
2023-05-11T00:41:10.025Z,2.20
2023-05-11T00:43:38.378Z,2.50
2023-05-11T00:46:07.065Z,2.27
2023-05-11T00:48:37.728Z,1.97
2023-05-11T00:51:07.267Z,2.30
2023-05-11T00:53:35.610Z,2.23
2023-05-11T00:56:06.820Z,1.90
2023-05-11T00:58:36.176Z,2.10
2023-05-11T01:01:04.493Z,2.43
2023-05-11T01:03:33.654Z,2.20
2023-05-11T01:06:11.983Z,2.30
2023-05-11T01:08:44.586Z,2.30
2023-05-11T01:11:17.210Z,2.23
2023-05-11T01:13:52.588Z,1.87
2023-05-11T01:16:24.857Z,2.50
2023-05-11T01:18:57.566Z,2.27
2023-05-11T01:21:31.650Z,2.47
2023-05-11T01:24:38.589Z,2.53
2023-05-11T01:27:44.697Z,2.20
2023-05-11T01:30:29.787Z,2.30
2023-05-11T01:33:05.217Z,2.37
2023-05-11T01:35:36.854Z,2.50
2023-05-11T01:38:08.215Z,2.20
2023-05-11T01:40:38.116Z,2.40
2023-05-11T01:43:14.345Z,2.13
2023-05-11T01:45:51.298Z,2.10
2023-05-11T01:48:27.236Z,2.30
2023-05-11T01:50:58.930Z,2.00
2023-05-11T01:53:29.874Z,2.50
2023-05-11T01:55:59.668Z,2.40
2023-05-11T01:58:29.850Z,2.20
2023-05-11T02:01:03.449Z,2.50
2023-05-11T02:03:34.423Z,2.20
2023-05-11T02:06:07.492Z,2.37
2023-05-11T02:08:37.303Z,2.03
2023-05-11T02:11:08.362Z,2.20
2023-05-11T02:13:43.073Z,2.40
2023-05-11T02:16:13.706Z,2.33
2023-05-11T02:18:43.464Z,2.40
2023-05-11T02:21:13.607Z,2.10
2023-05-11T02:23:44.137Z,2.30
2023-05-11T02:26:14.220Z,2.53
2023-05-11T02:28:42.548Z,2.53
2023-05-11T02:31:23.330Z,2.60
2023-05-11T02:33:55.279Z,2.30
2023-05-11T02:36:26.580Z,2.27
2023-05-11T02:39:02.996Z,2.17
2023-05-11T02:41:33.829Z,2.37
2023-05-11T02:44:06.108Z,2.20
2023-05-11T02:46:38.153Z,2.23
2023-05-11T02:49:10.634Z,2.20
2023-05-11T02:51:41.069Z,2.30
2023-05-11T02:54:11.946Z,2.43
2023-05-11T02:56:43.226Z,2.30
2023-05-11T02:59:11.949Z,2.30
2023-05-11T03:01:42.643Z,2.67
2023-05-11T03:04:13.618Z,2.50
2023-05-11T03:06:42.250Z,2.30
2023-05-11T03:09:11.240Z,2.10
2023-05-11T03:11:40.519Z,2.60
2023-05-11T03:14:11.401Z,2.73
2023-05-11T03:16:44.176Z,2.20
2023-05-11T03:19:14.528Z,2.40
2023-05-11T03:21:43.300Z,2.50
2023-05-11T03:24:12.406Z,2.20
2023-05-11T03:26:42.981Z,2.53
2023-05-11T03:29:13.394Z,2.50
2023-05-11T03:31:43.594Z,2.57
2023-05-11T03:34:12.104Z,2.40
2023-05-11T03:36:42.126Z,3.10
2023-05-11T03:39:12.782Z,2.30
2023-05-11T03:41:42.291Z,2.37
2023-05-11T03:44:16.134Z,2.77
2023-05-11T03:46:47.987Z,2.20
2023-05-11T03:49:16.947Z,2.40
2023-05-11T03:51:46.381Z,2.63
2023-05-11T03:54:15.486Z,2.93
2023-05-11T03:56:43.742Z,2.80
2023-05-11T03:59:16.727Z,2.97
2023-05-11T04:01:53.443Z,2.80
2023-05-11T04:04:22.429Z,2.57
2023-05-11T04:06:50.571Z,2.60
2023-05-11T04:09:18.723Z,2.40
2023-05-11T04:11:47.103Z,2.43
2023-05-11T04:14:17.597Z,2.47
2023-05-11T04:16:50.726Z,2.53
2023-05-11T04:19:19.089Z,2.97
2023-05-11T04:21:48.401Z,2.73
2023-05-11T04:24:16.914Z,2.53
2023-05-11T04:26:45.362Z,2.77
2023-05-11T04:29:14.003Z,2.47
2023-05-11T04:31:42.396Z,2.60
2023-05-11T04:34:12.248Z,2.40
2023-05-11T04:36:40.469Z,2.60
2023-05-11T04:39:08.926Z,2.47
2023-05-11T04:41:37.552Z,2.70
2023-05-11T04:44:08.128Z,2.97
2023-05-11T04:46:37.124Z,2.93
2023-05-11T04:49:05.561Z,3.20
2023-05-11T04:51:36.023Z,2.70
2023-05-11T04:54:06.474Z,2.67
2023-05-11T04:56:36.822Z,2.87
2023-05-11T04:59:08.187Z,2.80
2023-05-11T05:01:40.255Z,2.87
2023-05-11T05:04:12.167Z,2.40
2023-05-11T05:06:42.113Z,3.50
2023-05-11T05:09:11.374Z,2.90
2023-05-11T05:11:40.110Z,2.57
2023-05-11T05:14:08.283Z,2.90
2023-05-11T05:16:39.055Z,2.60
2023-05-11T05:19:07.609Z,2.47
2023-05-11T05:21:36.058Z,2.57
2023-05-11T05:24:09.567Z,2.87
2023-05-11T05:26:38.154Z,2.67
2023-05-11T05:29:06.752Z,3.03
2023-05-11T05:31:36.336Z,5.20
2023-05-11T05:34:04.964Z,3.60
2023-05-11T05:36:33.892Z,2.90
2023-05-11T05:39:10.051Z,2.97
2023-05-11T05:41:38.808Z,2.90
2023-05-11T05:44:07.201Z,2.80
2023-05-11T05:46:36.057Z,3.00
2023-05-11T05:49:04.320Z,2.60
2023-05-11T05:51:32.918Z,2.77
2023-05-11T05:54:04.405Z,3.50
2023-05-11T05:56:37.104Z,2.83
2023-05-11T05:59:05.567Z,2.90
2023-05-11T06:01:34.706Z,3.30
2023-05-11T06:04:06.525Z,3.80
2023-05-11T06:06:37.662Z,2.90
2023-05-11T06:09:06.161Z,2.80
2023-05-11T06:11:37.552Z,2.73
2023-05-11T06:14:07.099Z,3.00
2023-05-11T06:16:35.668Z,3.00
2023-05-11T06:19:04.689Z,3.10
2023-05-11T06:21:36.453Z,2.80
2023-05-11T06:24:05.122Z,4.33
2023-05-11T06:26:34.835Z,3.17
2023-05-11T06:29:03.668Z,4.27
2023-05-11T06:31:37.228Z,3.30
2023-05-11T06:34:05.614Z,3.33
2023-05-11T06:36:36.980Z,3.30
2023-05-11T06:39:07.043Z,3.30
2023-05-11T06:41:35.337Z,2.90
2023-05-11T06:44:03.650Z,3.07
2023-05-11T06:46:36.136Z,4.63
2023-05-11T06:49:04.782Z,3.10
2023-05-11T06:51:35.792Z,3.13
2023-05-11T06:54:04.407Z,2.70
2023-05-11T06:56:34.352Z,8.10
2023-05-11T06:59:04.850Z,5.23
2023-05-11T07:01:34.982Z,3.67
2023-05-11T07:04:03.550Z,2.97
2023-05-11T07:06:36.809Z,3.30
2023-05-11T07:09:05.449Z,2.97
2023-05-11T07:11:33.907Z,3.20
2023-05-11T07:14:06.221Z,3.03
2023-05-11T07:16:38.768Z,3.90
2023-05-11T07:19:08.488Z,4.20
2023-05-11T07:21:39.675Z,3.50
2023-05-11T07:24:08.606Z,3.27
2023-05-11T07:26:39.828Z,3.20
2023-05-11T07:29:08.005Z,3.13
2023-05-11T07:31:40.082Z,3.40
2023-05-11T07:34:08.716Z,3.10
2023-05-11T07:36:37.119Z,3.37
2023-05-11T07:39:06.036Z,2.90
2023-05-11T07:41:34.415Z,2.97
2023-05-11T07:44:03.044Z,3.00
2023-05-11T07:46:31.453Z,3.03
2023-05-11T07:49:14.491Z,3.00
2023-05-11T07:51:47.355Z,3.03
2023-05-11T07:54:15.746Z,3.10
2023-05-11T07:56:44.196Z,2.83
2023-05-11T07:59:12.581Z,3.20
2023-05-11T08:01:40.838Z,3.10
2023-05-11T08:04:10.552Z,3.60
2023-05-11T08:06:41.762Z,3.07
2023-05-11T08:09:10.184Z,3.40
2023-05-11T08:11:38.682Z,3.30
2023-05-11T08:14:07.254Z,3.23
2023-05-11T08:16:37.408Z,3.63
2023-05-11T08:19:05.842Z,3.80
2023-05-11T08:21:36.070Z,3.53
2023-05-11T08:24:04.395Z,3.07
2023-05-11T08:26:33.505Z,3.40
2023-05-11T08:29:04.776Z,3.17
2023-05-11T08:31:33.769Z,3.30
2023-05-11T08:34:05.077Z,3.20
2023-05-11T08:36:40.929Z,3.63
2023-05-11T08:39:09.305Z,3.17
2023-05-11T08:41:37.492Z,2.80
2023-05-11T08:44:06.422Z,2.90
2023-05-11T08:46:37.904Z,3.30
2023-05-11T08:49:06.286Z,3.00
2023-05-11T08:51:34.848Z,3.47
2023-05-11T08:54:07.354Z,2.70
2023-05-11T08:56:37.686Z,2.63
2023-05-11T08:59:06.451Z,2.83
2023-05-11T09:01:37.755Z,3.00
2023-05-11T09:04:07.251Z,2.67
2023-05-11T09:06:36.144Z,2.83
2023-05-11T09:09:06.116Z,3.20
2023-05-11T09:11:34.414Z,2.63
2023-05-11T09:14:05.787Z,2.80
2023-05-11T09:16:37.671Z,3.10
2023-05-11T09:19:06.680Z,3.03
2023-05-11T09:21:35.150Z,2.57
2023-05-11T09:24:08.514Z,3.30
2023-05-11T09:26:37.898Z,3.90
2023-05-11T09:29:06.917Z,3.93
2023-05-11T09:31:42.493Z,3.30
2023-05-11T09:34:13.750Z,3.40
2023-05-11T09:36:42.585Z,4.00
2023-05-11T09:39:16.625Z,3.60
2023-05-11T09:41:49.043Z,3.70
2023-05-11T09:44:18.296Z,4.00
2023-05-11T09:46:47.660Z,3.87
2023-05-11T09:49:16.308Z,4.37
2023-05-11T09:51:45.004Z,3.80
2023-05-11T09:54:22.662Z,4.10
2023-05-11T09:56:57.060Z,3.80
2023-05-11T09:59:42.225Z,3.60
2023-05-11T10:02:21.859Z,3.57
2023-05-11T10:04:50.877Z,3.50
2023-05-11T10:07:30.409Z,5.97
2023-05-11T10:10:02.300Z,3.40
2023-05-11T10:12:33.617Z,3.10
2023-05-11T10:15:06.429Z,3.50
2023-05-11T10:17:35.494Z,3.50
2023-05-11T10:20:06.854Z,3.57
2023-05-11T10:22:35.377Z,3.40
2023-05-11T10:25:06.544Z,4.00
2023-05-11T10:27:37.653Z,3.30
2023-05-11T10:30:08.688Z,3.30
2023-05-11T10:32:40.292Z,3.70
2023-05-11T10:35:23.453Z,3.30
2023-05-11T10:37:51.944Z,3.40
2023-05-11T10:40:22.256Z,3.60
2023-05-11T10:43:32.086Z,3.80
2023-05-11T10:46:13.732Z,3.83
2023-05-11T10:49:08.276Z,3.37
2023-05-11T10:52:05.125Z,3.90
2023-05-11T10:55:07.256Z,3.30
2023-05-11T10:57:55.247Z,3.93
2023-05-11T11:00:55.719Z,3.50
2023-05-11T11:03:24.424Z,3.20
2023-05-11T11:05:52.840Z,3.50
2023-05-11T11:08:22.078Z,3.70
2023-05-11T11:10:52.690Z,3.50
2023-05-11T11:13:25.279Z,6.27
2023-05-11T11:16:16.200Z,3.30
2023-05-11T11:18:45.055Z,3.20
2023-05-11T11:21:15.921Z,3.93
2023-05-11T11:23:45.806Z,3.90
2023-05-11T11:26:16.659Z,3.20
2023-05-11T11:29:14.317Z,3.73
2023-05-11T11:31:43.401Z,3.57
2023-05-11T11:34:34.066Z,3.67
2023-05-11T11:37:05.543Z,3.33
2023-05-11T11:39:53.484Z,3.13
2023-05-11T11:42:37.793Z,3.50
2023-05-11T11:45:35.454Z,3.90
2023-05-11T11:48:14.511Z,3.17
2023-05-11T11:50:48.287Z,3.90
2023-05-11T11:54:02.512Z,3.80
2023-05-11T11:56:47.085Z,3.40
2023-05-11T11:59:16.606Z,4.10
2023-05-11T12:01:47.137Z,3.70
2023-05-11T12:04:58.546Z,3.60
2023-05-11T12:07:28.030Z,3.60
2023-05-11T12:09:57.568Z,3.50
2023-05-11T12:12:26.412Z,3.10
2023-05-11T12:14:54.955Z,3.50
2023-05-11T12:17:30.125Z,3.07
2023-05-11T12:20:14.636Z,3.80
2023-05-11T12:22:43.447Z,3.17
2023-05-11T12:25:13.125Z,2.90
2023-05-11T12:27:51.153Z,3.43
2023-05-11T12:30:24.225Z,3.30
2023-05-11T12:32:57.711Z,3.30
2023-05-11T12:35:27.094Z,3.20
2023-05-11T12:37:58.977Z,2.73
2023-05-11T12:40:27.330Z,4.07
2023-05-11T12:42:57.452Z,3.17
2023-05-11T12:45:26.827Z,3.07
2023-05-11T12:47:58.939Z,2.90
2023-05-11T12:50:27.703Z,3.20
2023-05-11T12:52:56.430Z,2.40
2023-05-11T12:55:34.706Z,2.87
2023-05-11T12:58:09.279Z,3.10
2023-05-11T13:00:38.000Z,3.00
2023-05-11T13:03:13.322Z,3.30
2023-05-11T13:05:42.029Z,2.73
2023-05-11T13:08:12.096Z,2.80
2023-05-11T13:10:40.830Z,3.00
2023-05-11T13:13:09.936Z,6.17
2023-05-11T13:15:52.505Z,3.10
2023-05-11T13:18:23.308Z,2.80
2023-05-11T13:21:09.627Z,2.90
2023-05-11T13:23:39.350Z,3.10
2023-05-11T13:26:08.590Z,2.60
2023-05-11T13:28:37.385Z,3.00
2023-05-11T13:31:05.861Z,2.70
2023-05-11T13:33:35.949Z,2.80
2023-05-11T13:36:04.193Z,2.70
2023-05-11T13:38:32.603Z,2.83
2023-05-11T13:41:01.173Z,2.97
2023-05-11T13:43:29.947Z,2.80
2023-05-11T13:46:02.396Z,3.00
2023-05-11T13:48:32.200Z,2.93
2023-05-11T13:51:02.311Z,2.90
2023-05-11T13:53:31.081Z,3.07
2023-05-11T13:55:59.592Z,2.60
2023-05-11T13:58:28.088Z,2.37
2023-05-11T14:01:07.214Z,2.63
2023-05-11T14:03:36.571Z,2.93
2023-05-11T14:06:14.076Z,2.80
2023-05-11T14:08:42.407Z,2.73
2023-05-11T14:11:11.051Z,2.73
2023-05-11T14:13:39.471Z,2.90
2023-05-11T14:16:10.304Z,2.90
2023-05-11T14:18:38.626Z,2.77
2023-05-11T14:21:08.612Z,2.40
2023-05-11T14:23:38.994Z,2.50
2023-05-11T14:26:09.676Z,2.97
2023-05-11T14:28:38.151Z,2.50
2023-05-11T14:31:06.603Z,2.90
2023-05-11T14:33:35.119Z,2.70
2023-05-11T14:36:09.633Z,2.67
2023-05-11T14:38:38.499Z,2.63
2023-05-11T14:41:07.584Z,3.00
2023-05-11T14:43:35.920Z,2.60
2023-05-11T14:46:05.524Z,2.67
2023-05-11T14:48:36.842Z,2.83
2023-05-11T14:51:05.321Z,3.00
2023-05-11T14:53:35.551Z,3.30
2023-05-11T14:56:04.903Z,2.60
2023-05-11T14:58:33.412Z,3.00
2023-05-11T15:01:06.312Z,2.90
2023-05-11T15:03:38.574Z,2.90
2023-05-11T15:06:07.572Z,3.00
2023-05-11T15:08:37.279Z,3.70
2023-05-11T15:11:05.618Z,3.00
2023-05-11T15:13:34.142Z,3.00
2023-05-11T15:16:08.727Z,4.67
2023-05-11T15:18:37.302Z,2.90
2023-05-11T15:21:08.874Z,3.60
2023-05-11T15:23:39.341Z,3.70
2023-05-11T15:26:10.681Z,3.37
2023-05-11T15:28:39.040Z,3.40
2023-05-11T15:31:07.473Z,3.03
2023-05-11T15:33:39.590Z,3.30
2023-05-11T15:36:13.304Z,2.83
2023-05-11T15:38:48.176Z,2.90
2023-05-11T15:41:19.528Z,3.60
2023-05-11T15:43:47.711Z,3.30
2023-05-11T15:46:16.379Z,3.67
2023-05-11T15:48:47.851Z,3.63
2023-05-11T15:51:16.582Z,3.37
2023-05-11T15:53:46.563Z,3.50
2023-05-11T15:56:17.287Z,3.30
2023-05-11T15:58:46.998Z,3.87
2023-05-11T16:01:15.732Z,3.70
2023-05-11T16:03:44.158Z,3.40
2023-05-11T16:06:13.461Z,3.50
2023-05-11T16:08:48.410Z,3.50
2023-05-11T16:11:20.638Z,3.80
2023-05-11T16:13:49.607Z,3.70
2023-05-11T16:16:17.904Z,3.63
2023-05-11T16:18:48.067Z,3.60
2023-05-11T16:21:17.060Z,4.73
2023-05-11T16:23:45.272Z,3.30
2023-05-11T16:26:13.880Z,3.67
2023-05-11T16:28:44.374Z,3.10
2023-05-11T16:31:12.581Z,3.63
2023-05-11T16:33:40.716Z,3.13
2023-05-11T16:36:10.428Z,3.63
2023-05-11T16:38:41.482Z,3.37
2023-05-11T16:41:11.570Z,3.43
2023-05-11T16:43:43.113Z,4.00
2023-05-11T16:46:17.032Z,3.13
2023-05-11T16:48:46.335Z,3.20
2023-05-11T16:51:14.680Z,3.37
2023-05-11T16:53:43.242Z,3.43
2023-05-11T16:56:15.389Z,3.10
2023-05-11T16:58:45.251Z,3.40
2023-05-11T17:01:20.592Z,3.30
2023-05-11T17:03:49.112Z,3.60
2023-05-11T17:06:21.019Z,3.50
2023-05-11T17:08:51.365Z,4.20
2023-05-11T17:11:20.303Z,3.60
2023-05-11T17:13:48.892Z,3.50
2023-05-11T17:16:18.831Z,3.50
2023-05-11T17:18:47.516Z,3.90
2023-05-11T17:21:16.074Z,3.60
2023-05-11T17:23:45.199Z,3.43
2023-05-11T17:26:14.461Z,3.70
2023-05-11T17:28:43.104Z,4.60
2023-05-11T17:31:14.636Z,4.00
2023-05-11T17:33:44.725Z,4.30
2023-05-11T17:36:13.776Z,4.53
2023-05-11T17:38:44.808Z,4.20
2023-05-11T17:41:12.954Z,4.30
2023-05-11T17:43:43.704Z,3.63
2023-05-11T17:46:11.982Z,4.57
2023-05-11T17:48:40.324Z,3.80
2023-05-11T17:51:10.026Z,3.70
2023-05-11T17:53:38.729Z,3.60
2023-05-11T17:56:10.006Z,3.60
2023-05-11T17:58:38.423Z,3.73
2023-05-11T18:01:09.879Z,3.30
2023-05-11T18:03:38.482Z,4.37
2023-05-11T18:06:07.372Z,4.20
2023-05-11T18:08:40.508Z,3.90
2023-05-11T18:11:11.000Z,3.30
2023-05-11T18:13:39.680Z,3.13
2023-05-11T18:16:08.386Z,3.80
2023-05-11T18:18:39.043Z,3.57
2023-05-11T18:21:07.758Z,3.77
2023-05-11T18:23:37.815Z,3.70
2023-05-11T18:26:07.790Z,3.30
2023-05-11T18:28:36.131Z,3.10
2023-05-11T18:31:04.506Z,3.30
2023-05-11T18:33:32.877Z,3.70
2023-05-11T18:36:01.262Z,3.63
2023-05-11T18:38:29.725Z,3.97
2023-05-11T18:40:58.124Z,4.00
2023-05-11T18:43:28.251Z,3.50
2023-05-11T18:45:59.013Z,3.60
2023-05-11T18:48:27.492Z,4.47
2023-05-11T18:50:59.588Z,3.83
2023-05-11T18:53:30.109Z,4.37
2023-05-11T18:55:59.214Z,8.43
2023-05-11T18:58:30.416Z,3.83
2023-05-11T19:00:59.691Z,4.23
2023-05-11T19:03:29.030Z,3.63
2023-05-11T19:05:59.729Z,3.57
2023-05-11T19:08:28.164Z,3.50
2023-05-11T19:10:56.548Z,3.93
2023-05-11T19:13:25.424Z,3.37
2023-05-11T19:15:55.067Z,4.20
2023-05-11T19:18:23.308Z,3.60
2023-05-11T19:20:51.461Z,4.30
2023-05-11T19:23:22.879Z,3.60
2023-05-11T19:25:51.268Z,4.07
2023-05-11T19:28:19.537Z,3.70
2023-05-11T19:30:48.040Z,3.90
2023-05-11T19:33:18.333Z,4.43
2023-05-11T19:35:46.502Z,3.87
2023-05-11T19:38:14.729Z,4.17
2023-05-11T19:40:46.300Z,4.13
2023-05-11T19:43:14.943Z,4.23
2023-05-11T19:45:44.356Z,4.00
2023-05-11T19:48:13.554Z,4.37
2023-05-11T19:50:46.330Z,4.23
2023-05-11T19:53:15.082Z,4.23
2023-05-11T19:55:46.039Z,4.13
2023-05-11T19:58:16.287Z,4.10
2023-05-11T20:00:44.579Z,4.30
2023-05-11T20:03:13.001Z,3.67
2023-05-11T20:05:41.704Z,4.30
2023-05-11T20:08:11.618Z,3.70
2023-05-11T20:10:41.284Z,3.87
2023-05-11T20:13:09.669Z,4.47
2023-05-11T20:15:38.043Z,4.50
2023-05-11T20:18:06.372Z,4.30
2023-05-11T20:20:34.741Z,3.83
2023-05-11T20:23:06.516Z,4.10
2023-05-11T20:25:38.521Z,3.97
2023-05-11T20:28:06.731Z,4.20
2023-05-11T20:30:34.932Z,4.27
2023-05-11T20:35:35.120Z,5.40
2023-05-11T20:38:03.391Z,5.07
2023-05-11T20:40:32.240Z,5.10
2023-05-11T20:43:02.929Z,4.77
2023-05-11T20:45:31.822Z,4.43
2023-05-11T20:48:00.607Z,4.40
2023-05-11T20:50:29.186Z,5.00
2023-05-11T20:52:57.649Z,4.83
2023-05-11T20:55:28.769Z,5.37
2023-05-11T20:57:57.857Z,4.60
2023-05-11T21:00:32.225Z,3.97
2023-05-11T21:03:04.916Z,3.90
2023-05-11T21:05:33.765Z,3.73
2023-05-11T21:08:02.432Z,4.00
2023-05-11T21:10:34.219Z,3.73
2023-05-11T21:13:05.428Z,4.07
2023-05-11T21:15:36.269Z,4.37
2023-05-11T21:18:04.733Z,3.90
2023-05-11T21:20:33.160Z,4.17
2023-05-11T21:23:01.534Z,4.00
2023-05-11T21:25:29.913Z,4.10
2023-05-11T21:27:58.548Z,4.20
2023-05-11T21:30:26.928Z,4.20
2023-05-11T21:32:56.731Z,4.47
2023-05-11T21:35:25.860Z,4.10
2023-05-11T21:37:54.275Z,3.93
2023-05-11T21:40:22.614Z,3.47
2023-05-11T21:42:50.906Z,4.07
2023-05-11T21:45:19.941Z,3.90
2023-05-11T21:47:48.713Z,4.20
2023-05-11T21:50:19.691Z,4.00
2023-05-11T21:52:48.140Z,3.87
2023-05-11T21:55:19.013Z,3.50
2023-05-11T21:57:47.555Z,3.77
2023-05-11T22:00:21.120Z,3.80
2023-05-11T22:02:50.363Z,3.67
2023-05-11T22:05:22.510Z,4.20
2023-05-11T22:07:53.928Z,3.87
2023-05-11T22:10:24.836Z,3.90
2023-05-11T22:12:53.330Z,3.87
2023-05-11T22:15:22.735Z,3.80
2023-05-11T22:17:51.071Z,3.40
2023-05-11T22:20:21.179Z,3.50
2023-05-11T22:22:49.607Z,3.50
2023-05-11T22:25:20.371Z,3.20
2023-05-11T22:27:48.772Z,3.63
2023-05-11T22:30:17.229Z,3.83
2023-05-11T22:32:45.482Z,4.47
2023-05-11T22:35:13.771Z,3.37
2023-05-11T22:37:43.683Z,3.30
2023-05-11T22:40:13.304Z,3.50
2023-05-11T22:42:41.992Z,3.57
2023-05-11T22:45:11.280Z,3.43
2023-05-11T22:47:39.662Z,3.50
2023-05-11T22:50:12.033Z,3.70
2023-05-11T22:52:40.530Z,4.13
2023-05-11T22:55:11.499Z,3.93
2023-05-11T22:57:39.974Z,3.67
2023-05-11T23:00:10.714Z,3.90
2023-05-11T23:02:39.267Z,4.07
2023-05-11T23:05:08.495Z,4.37
2023-05-11T23:07:37.674Z,3.93
2023-05-11T23:10:06.417Z,3.77
2023-05-11T23:12:36.292Z,3.90
2023-05-11T23:15:05.187Z,3.87
2023-05-11T23:17:34.029Z,3.70
2023-05-11T23:20:05.867Z,3.40
2023-05-11T23:22:34.829Z,3.77
2023-05-11T23:25:03.570Z,3.60
2023-05-11T23:27:32.260Z,4.03
2023-05-11T23:30:06.038Z,3.80
2023-05-11T23:32:35.313Z,3.70
2023-05-11T23:35:03.881Z,3.70
2023-05-11T23:37:32.956Z,4.30
2023-05-11T23:40:01.544Z,3.60
2023-05-11T23:42:31.581Z,3.77
2023-05-11T23:45:04.830Z,3.60
2023-05-11T23:47:33.502Z,3.23
2023-05-11T23:50:05.116Z,3.50
2023-05-11T23:52:33.478Z,3.20
2023-05-11T23:55:02.185Z,3.83
2023-05-11T23:57:33.256Z,3.43
